sensor_id;sensor_type;location;lat;lon;timestamp;P1;durP1;ratioP1;P2;durP2;ratioP2
23668;SDS011;12011;47.422;15.018;2023-05-19T00:01:02;1.42;;;1.42;;
23668;SDS011;12011;47.422;15.018;2023-05-19T00:03:34;1.48;;;1.47;;
23668;SDS011;12011;47.422;15.018;2023-05-19T00:06:06;1.50;;;1.50;;
23668;SDS011;12011;47.422;15.018;2023-05-19T00:08:42;1.24;;;1.24;;
23668;SDS011;12011;47.422;15.018;2023-05-19T00:11:16;1.53;;;1.53;;
23668;SDS011;12011;47.422;15.018;2023-05-19T00:13:51;1.62;;;1.62;;
23668;SDS011;12011;47.422;15.018;2023-05-19T00:16:23;1.57;;;1.57;;
23668;SDS011;12011;47.422;15.018;2023-05-19T00:19:00;1.60;;;1.60;;
23668;SDS011;12011;47.422;15.018;2023-05-19T00:21:37;1.62;;;1.62;;
23668;SDS011;12011;47.422;15.018;2023-05-19T00:24:10;1.68;;;1.68;;
23668;SDS011;12011;47.422;15.018;2023-05-19T00:26:42;1.37;;;1.36;;
23668;SDS011;12011;47.422;15.018;2023-05-19T00:29:14;1.32;;;1.32;;
23668;SDS011;12011;47.422;15.018;2023-05-19T00:31:48;1.21;;;1.21;;
23668;SDS011;12011;47.422;15.018;2023-05-19T00:34:20;1.16;;;1.16;;
23668;SDS011;12011;47.422;15.018;2023-05-19T00:36:51;1.19;;;1.18;;
23668;SDS011;12011;47.422;15.018;2023-05-19T00:39:27;1.34;;;1.34;;
23668;SDS011;12011;47.422;15.018;2023-05-19T00:41:59;1.32;;;1.32;;
23668;SDS011;12011;47.422;15.018;2023-05-19T00:44:33;1.13;;;1.12;;
23668;SDS011;12011;47.422;15.018;2023-05-19T00:47:11;1.25;;;1.25;;
23668;SDS011;12011;47.422;15.018;2023-05-19T00:49:46;1.21;;;1.21;;
23668;SDS011;12011;47.422;15.018;2023-05-19T00:52:23;1.31;;;1.31;;
23668;SDS011;12011;47.422;15.018;2023-05-19T00:54:58;1.29;;;1.29;;
23668;SDS011;12011;47.422;15.018;2023-05-19T00:57:30;1.13;;;1.12;;
23668;SDS011;12011;47.422;15.018;2023-05-19T01:00:01;1.34;;;1.34;;
23668;SDS011;12011;47.422;15.018;2023-05-19T01:02:33;1.08;;;1.08;;
23668;SDS011;12011;47.422;15.018;2023-05-19T01:05:07;1.09;;;1.09;;
23668;SDS011;12011;47.422;15.018;2023-05-19T01:07:39;1.05;;;1.05;;
23668;SDS011;12011;47.422;15.018;2023-05-19T01:10:14;0.99;;;0.99;;
23668;SDS011;12011;47.422;15.018;2023-05-19T01:12:50;1.11;;;1.11;;
23668;SDS011;12011;47.422;15.018;2023-05-19T01:15:25;1.18;;;1.18;;
23668;SDS011;12011;47.422;15.018;2023-05-19T01:18:04;1.06;;;1.06;;
23668;SDS011;12011;47.422;15.018;2023-05-19T01:20:43;1.08;;;1.08;;
23668;SDS011;12011;47.422;15.018;2023-05-19T01:23:25;1.26;;;1.25;;
23668;SDS011;12011;47.422;15.018;2023-05-19T01:26:29;1.30;;;1.30;;
23668;SDS011;12011;47.422;15.018;2023-05-19T01:29:27;1.16;;;1.16;;
23668;SDS011;12011;47.422;15.018;2023-05-19T01:32:38;1.12;;;1.11;;
23668;SDS011;12011;47.422;15.018;2023-05-19T01:35:24;1.02;;;1.01;;
23668;SDS011;12011;47.422;15.018;2023-05-19T01:37:58;1.09;;;1.09;;
23668;SDS011;12011;47.422;15.018;2023-05-19T01:40:32;1.07;;;1.07;;
23668;SDS011;12011;47.422;15.018;2023-05-19T01:43:08;1.19;;;1.19;;
23668;SDS011;12011;47.422;15.018;2023-05-19T01:45:54;1.51;;;1.50;;
23668;SDS011;12011;47.422;15.018;2023-05-19T01:48:28;1.50;;;1.49;;
23668;SDS011;12011;47.422;15.018;2023-05-19T01:51:08;1.70;;;1.68;;
23668;SDS011;12011;47.422;15.018;2023-05-19T01:53:38;1.70;;;1.68;;
23668;SDS011;12011;47.422;15.018;2023-05-19T01:56:08;1.76;;;1.76;;
23668;SDS011;12011;47.422;15.018;2023-05-19T01:58:40;1.64;;;1.64;;
23668;SDS011;12011;47.422;15.018;2023-05-19T02:01:27;1.57;;;1.57;;
23668;SDS011;12011;47.422;15.018;2023-05-19T02:04:14;1.37;;;1.36;;
23668;SDS011;12011;47.422;15.018;2023-05-19T02:07:02;1.48;;;1.48;;
23668;SDS011;12011;47.422;15.018;2023-05-19T02:09:46;1.46;;;1.46;;
23668;SDS011;12011;47.422;15.018;2023-05-19T02:12:31;1.40;;;1.40;;
23668;SDS011;12011;47.422;15.018;2023-05-19T02:15:13;1.50;;;1.50;;
23668;SDS011;12011;47.422;15.018;2023-05-19T02:17:56;1.35;;;1.34;;
23668;SDS011;12011;47.422;15.018;2023-05-19T02:20:31;1.35;;;1.34;;
23668;SDS011;12011;47.422;15.018;2023-05-19T02:23:03;1.36;;;1.36;;
23668;SDS011;12011;47.422;15.018;2023-05-19T02:25:39;1.26;;;1.26;;
23668;SDS011;12011;47.422;15.018;2023-05-19T02:28:11;1.43;;;1.43;;
23668;SDS011;12011;47.422;15.018;2023-05-19T02:30:41;1.44;;;1.44;;
23668;SDS011;12011;47.422;15.018;2023-05-19T02:33:15;1.27;;;1.27;;
23668;SDS011;12011;47.422;15.018;2023-05-19T02:35:49;1.25;;;1.24;;
23668;SDS011;12011;47.422;15.018;2023-05-19T02:38:21;1.29;;;1.29;;
23668;SDS011;12011;47.422;15.018;2023-05-19T02:40:52;1.46;;;1.45;;
23668;SDS011;12011;47.422;15.018;2023-05-19T02:43:22;1.19;;;1.18;;
23668;SDS011;12011;47.422;15.018;2023-05-19T02:45:59;1.46;;;1.44;;
23668;SDS011;12011;47.422;15.018;2023-05-19T02:48:34;1.25;;;1.24;;
23668;SDS011;12011;47.422;15.018;2023-05-19T02:51:10;1.22;;;1.21;;
23668;SDS011;12011;47.422;15.018;2023-05-19T02:53:41;1.37;;;1.37;;
23668;SDS011;12011;47.422;15.018;2023-05-19T02:56:14;1.09;;;1.09;;
23668;SDS011;12011;47.422;15.018;2023-05-19T02:58:44;1.19;;;1.19;;
23668;SDS011;12011;47.422;15.018;2023-05-19T03:01:18;1.31;;;1.31;;
23668;SDS011;12011;47.422;15.018;2023-05-19T03:03:51;1.23;;;1.23;;
23668;SDS011;12011;47.422;15.018;2023-05-19T03:06:25;1.32;;;1.32;;
23668;SDS011;12011;47.422;15.018;2023-05-19T03:08:59;1.16;;;1.16;;
23668;SDS011;12011;47.422;15.018;2023-05-19T03:11:35;1.03;;;1.03;;
23668;SDS011;12011;47.422;15.018;2023-05-19T03:14:05;1.16;;;1.16;;
23668;SDS011;12011;47.422;15.018;2023-05-19T03:16:38;1.07;;;1.06;;
23668;SDS011;12011;47.422;15.018;2023-05-19T03:19:12;1.25;;;1.25;;
23668;SDS011;12011;47.422;15.018;2023-05-19T03:21:50;1.08;;;1.08;;
23668;SDS011;12011;47.422;15.018;2023-05-19T03:24:21;1.19;;;1.19;;
23668;SDS011;12011;47.422;15.018;2023-05-19T03:26:57;1.12;;;1.12;;
23668;SDS011;12011;47.422;15.018;2023-05-19T03:29:29;1.22;;;1.22;;
23668;SDS011;12011;47.422;15.018;2023-05-19T03:32:05;1.07;;;1.07;;
23668;SDS011;12011;47.422;15.018;2023-05-19T03:34:40;1.26;;;1.26;;
23668;SDS011;12011;47.422;15.018;2023-05-19T03:37:15;1.05;;;1.05;;
23668;SDS011;12011;47.422;15.018;2023-05-19T03:39:51;1.11;;;1.11;;
23668;SDS011;12011;47.422;15.018;2023-05-19T03:42:25;1.13;;;1.13;;
23668;SDS011;12011;47.422;15.018;2023-05-19T03:45:23;1.12;;;1.12;;
23668;SDS011;12011;47.422;15.018;2023-05-19T03:47:58;1.19;;;1.19;;
23668;SDS011;12011;47.422;15.018;2023-05-19T03:50:52;1.15;;;1.15;;
23668;SDS011;12011;47.422;15.018;2023-05-19T03:53:25;1.08;;;1.08;;
23668;SDS011;12011;47.422;15.018;2023-05-19T03:55:58;1.27;;;1.27;;
23668;SDS011;12011;47.422;15.018;2023-05-19T03:58:28;1.04;;;1.04;;
23668;SDS011;12011;47.422;15.018;2023-05-19T04:00:59;1.15;;;1.15;;
23668;SDS011;12011;47.422;15.018;2023-05-19T04:03:30;1.11;;;1.11;;
23668;SDS011;12011;47.422;15.018;2023-05-19T04:06:11;1.08;;;1.08;;
23668;SDS011;12011;47.422;15.018;2023-05-19T04:08:44;1.10;;;1.10;;
23668;SDS011;12011;47.422;15.018;2023-05-19T04:11:14;1.06;;;1.06;;
23668;SDS011;12011;47.422;15.018;2023-05-19T04:13:47;1.20;;;1.19;;
23668;SDS011;12011;47.422;15.018;2023-05-19T04:16:17;1.35;;;1.33;;
23668;SDS011;12011;47.422;15.018;2023-05-19T04:18:47;1.39;;;1.37;;
23668;SDS011;12011;47.422;15.018;2023-05-19T04:21:20;1.37;;;1.36;;
23668;SDS011;12011;47.422;15.018;2023-05-19T04:23:50;1.39;;;1.38;;
23668;SDS011;12011;47.422;15.018;2023-05-19T04:26:28;1.70;;;1.70;;
23668;SDS011;12011;47.422;15.018;2023-05-19T04:29:10;1.67;;;1.67;;
23668;SDS011;12011;47.422;15.018;2023-05-19T04:31:46;1.46;;;1.46;;
23668;SDS011;12011;47.422;15.018;2023-05-19T04:34:17;1.52;;;1.52;;
23668;SDS011;12011;47.422;15.018;2023-05-19T04:36:54;1.53;;;1.53;;
23668;SDS011;12011;47.422;15.018;2023-05-19T04:39:26;2.04;;;2.03;;
23668;SDS011;12011;47.422;15.018;2023-05-19T04:42:00;4.58;;;4.55;;
23668;SDS011;12011;47.422;15.018;2023-05-19T04:44:34;4.82;;;4.78;;
23668;SDS011;12011;47.422;15.018;2023-05-19T04:47:05;2.11;;;2.09;;
23668;SDS011;12011;47.422;15.018;2023-05-19T04:49:37;1.62;;;1.60;;
23668;SDS011;12011;47.422;15.018;2023-05-19T04:52:10;1.58;;;1.56;;
23668;SDS011;12011;47.422;15.018;2023-05-19T04:54:46;1.56;;;1.55;;
23668;SDS011;12011;47.422;15.018;2023-05-19T04:57:19;1.73;;;1.72;;
23668;SDS011;12011;47.422;15.018;2023-05-19T04:59:51;1.67;;;1.67;;
23668;SDS011;12011;47.422;15.018;2023-05-19T05:02:34;1.54;;;1.54;;
23668;SDS011;12011;47.422;15.018;2023-05-19T05:05:08;1.93;;;1.92;;
23668;SDS011;12011;47.422;15.018;2023-05-19T05:07:41;1.75;;;1.74;;
23668;SDS011;12011;47.422;15.018;2023-05-19T05:10:19;1.80;;;1.80;;
23668;SDS011;12011;47.422;15.018;2023-05-19T05:12:55;2.01;;;2.01;;
23668;SDS011;12011;47.422;15.018;2023-05-19T05:15:37;2.19;;;2.19;;
23668;SDS011;12011;47.422;15.018;2023-05-19T05:18:09;2.49;;;2.49;;
23668;SDS011;12011;47.422;15.018;2023-05-19T05:20:42;3.53;;;3.52;;
23668;SDS011;12011;47.422;15.018;2023-05-19T05:23:21;3.77;;;3.74;;
23668;SDS011;12011;47.422;15.018;2023-05-19T05:25:53;3.65;;;3.63;;
23668;SDS011;12011;47.422;15.018;2023-05-19T05:28:24;3.47;;;3.46;;
23668;SDS011;12011;47.422;15.018;2023-05-19T05:31:03;3.28;;;3.26;;
23668;SDS011;12011;47.422;15.018;2023-05-19T05:33:33;3.34;;;3.32;;
23668;SDS011;12011;47.422;15.018;2023-05-19T05:36:04;2.83;;;2.82;;
23668;SDS011;12011;47.422;15.018;2023-05-19T05:38:38;2.84;;;2.82;;
23668;SDS011;12011;47.422;15.018;2023-05-19T05:41:11;2.65;;;2.64;;
23668;SDS011;12011;47.422;15.018;2023-05-19T05:43:47;2.86;;;2.86;;
23668;SDS011;12011;47.422;15.018;2023-05-19T05:46:21;2.64;;;2.64;;
23668;SDS011;12011;47.422;15.018;2023-05-19T05:48:57;2.34;;;2.34;;
23668;SDS011;12011;47.422;15.018;2023-05-19T05:51:31;1.87;;;1.86;;
23668;SDS011;12011;47.422;15.018;2023-05-19T05:54:10;1.86;;;1.85;;
23668;SDS011;12011;47.422;15.018;2023-05-19T05:56:45;2.38;;;2.37;;
23668;SDS011;12011;47.422;15.018;2023-05-19T05:59:22;2.25;;;2.24;;
23668;SDS011;12011;47.422;15.018;2023-05-19T06:01:52;2.20;;;2.20;;
23668;SDS011;12011;47.422;15.018;2023-05-19T06:04:23;2.30;;;2.29;;
23668;SDS011;12011;47.422;15.018;2023-05-19T06:06:59;2.30;;;2.29;;
23668;SDS011;12011;47.422;15.018;2023-05-19T06:09:40;3.36;;;3.34;;
23668;SDS011;12011;47.422;15.018;2023-05-19T06:12:16;3.03;;;3.01;;
23668;SDS011;12011;47.422;15.018;2023-05-19T06:14:49;2.70;;;2.67;;
23668;SDS011;12011;47.422;15.018;2023-05-19T06:17:39;2.57;;;2.55;;
23668;SDS011;12011;47.422;15.018;2023-05-19T06:20:12;2.43;;;2.41;;
23668;SDS011;12011;47.422;15.018;2023-05-19T06:22:44;2.49;;;2.48;;
23668;SDS011;12011;47.422;15.018;2023-05-19T06:25:24;3.02;;;3.00;;
23668;SDS011;12011;47.422;15.018;2023-05-19T06:28:00;2.80;;;2.77;;
23668;SDS011;12011;47.422;15.018;2023-05-19T06:30:36;2.85;;;2.84;;
23668;SDS011;12011;47.422;15.018;2023-05-19T06:33:30;2.25;;;2.24;;
23668;SDS011;12011;47.422;15.018;2023-05-19T06:36:02;2.23;;;2.22;;
23668;SDS011;12011;47.422;15.018;2023-05-19T06:38:36;2.42;;;2.41;;
23668;SDS011;12011;47.422;15.018;2023-05-19T06:41:13;2.69;;;2.69;;
23668;SDS011;12011;47.422;15.018;2023-05-19T06:43:46;2.25;;;2.24;;
23668;SDS011;12011;47.422;15.018;2023-05-19T06:46:20;2.18;;;2.17;;
23668;SDS011;12011;47.422;15.018;2023-05-19T06:48:53;2.19;;;2.18;;
23668;SDS011;12011;47.422;15.018;2023-05-19T06:51:31;2.47;;;2.47;;
23668;SDS011;12011;47.422;15.018;2023-05-19T06:54:02;2.15;;;2.15;;
23668;SDS011;12011;47.422;15.018;2023-05-19T06:56:38;2.41;;;2.40;;
23668;SDS011;12011;47.422;15.018;2023-05-19T06:59:18;3.06;;;3.04;;
23668;SDS011;12011;47.422;15.018;2023-05-19T07:01:52;2.78;;;2.77;;
23668;SDS011;12011;47.422;15.018;2023-05-19T07:04:27;2.51;;;2.49;;
23668;SDS011;12011;47.422;15.018;2023-05-19T07:06:59;2.24;;;2.23;;
23668;SDS011;12011;47.422;15.018;2023-05-19T07:09:39;2.33;;;2.33;;
23668;SDS011;12011;47.422;15.018;2023-05-19T07:12:15;2.34;;;2.34;;
23668;SDS011;12011;47.422;15.018;2023-05-19T07:14:45;2.10;;;2.10;;
23668;SDS011;12011;47.422;15.018;2023-05-19T07:17:18;1.95;;;1.94;;
23668;SDS011;12011;47.422;15.018;2023-05-19T07:19:50;1.82;;;1.82;;
23668;SDS011;12011;47.422;15.018;2023-05-19T07:22:20;1.63;;;1.62;;
23668;SDS011;12011;47.422;15.018;2023-05-19T07:24:51;1.62;;;1.62;;
23668;SDS011;12011;47.422;15.018;2023-05-19T07:27:24;1.77;;;1.77;;
23668;SDS011;12011;47.422;15.018;2023-05-19T07:29:57;1.35;;;1.35;;
23668;SDS011;12011;47.422;15.018;2023-05-19T07:32:31;1.25;;;1.25;;
23668;SDS011;12011;47.422;15.018;2023-05-19T07:35:01;1.42;;;1.41;;
23668;SDS011;12011;47.422;15.018;2023-05-19T07:37:31;1.41;;;1.40;;
23668;SDS011;12011;47.422;15.018;2023-05-19T07:40:03;1.50;;;1.49;;
23668;SDS011;12011;47.422;15.018;2023-05-19T07:42:38;1.57;;;1.57;;
23668;SDS011;12011;47.422;15.018;2023-05-19T07:45:10;1.59;;;1.59;;
23668;SDS011;12011;47.422;15.018;2023-05-19T07:47:50;1.64;;;1.64;;
23668;SDS011;12011;47.422;15.018;2023-05-19T07:50:21;1.59;;;1.59;;
23668;SDS011;12011;47.422;15.018;2023-05-19T07:52:53;1.56;;;1.55;;
23668;SDS011;12011;47.422;15.018;2023-05-19T07:55:25;1.47;;;1.47;;
23668;SDS011;12011;47.422;15.018;2023-05-19T07:58:00;1.93;;;1.92;;
23668;SDS011;12011;47.422;15.018;2023-05-19T08:00:33;2.04;;;2.03;;
23668;SDS011;12011;47.422;15.018;2023-05-19T08:03:04;1.62;;;1.62;;
23668;SDS011;12011;47.422;15.018;2023-05-19T08:05:42;1.78;;;1.78;;
23668;SDS011;12011;47.422;15.018;2023-05-19T08:08:14;1.78;;;1.78;;
23668;SDS011;12011;47.422;15.018;2023-05-19T08:10:44;1.83;;;1.83;;
23668;SDS011;12011;47.422;15.018;2023-05-19T08:13:22;1.81;;;1.81;;
23668;SDS011;12011;47.422;15.018;2023-05-19T08:15:52;1.93;;;1.92;;
23668;SDS011;12011;47.422;15.018;2023-05-19T08:18:27;1.99;;;1.99;;
23668;SDS011;12011;47.422;15.018;2023-05-19T08:21:02;2.04;;;2.03;;
23668;SDS011;12011;47.422;15.018;2023-05-19T08:23:34;1.75;;;1.75;;
23668;SDS011;12011;47.422;15.018;2023-05-19T08:26:05;1.81;;;1.81;;
23668;SDS011;12011;47.422;15.018;2023-05-19T08:28:41;2.09;;;2.09;;
23668;SDS011;12011;47.422;15.018;2023-05-19T08:31:14;1.94;;;1.94;;
23668;SDS011;12011;47.422;15.018;2023-05-19T08:33:52;2.00;;;2.00;;
23668;SDS011;12011;47.422;15.018;2023-05-19T08:36:23;2.19;;;2.19;;
23668;SDS011;12011;47.422;15.018;2023-05-19T08:38:55;1.89;;;1.89;;
23668;SDS011;12011;47.422;15.018;2023-05-19T08:41:32;1.90;;;1.90;;
23668;SDS011;12011;47.422;15.018;2023-05-19T08:44:08;1.91;;;1.91;;
23668;SDS011;12011;47.422;15.018;2023-05-19T08:46:43;2.86;;;2.86;;
23668;SDS011;12011;47.422;15.018;2023-05-19T08:49:22;8.06;;;7.54;;
23668;SDS011;12011;47.422;15.018;2023-05-19T08:51:59;2.55;;;2.37;;
23668;SDS011;12011;47.422;15.018;2023-05-19T08:54:48;2.86;;;2.74;;
23668;SDS011;12011;47.422;15.018;2023-05-19T08:57:32;12.88;;;11.33;;
23668;SDS011;12011;47.422;15.018;2023-05-19T09:00:12;10.59;;;8.89;;
23668;SDS011;12011;47.422;15.018;2023-05-19T09:02:57;3.02;;;2.72;;
23668;SDS011;12011;47.422;15.018;2023-05-19T09:05:31;3.20;;;2.90;;
23668;SDS011;12011;47.422;15.018;2023-05-19T09:08:05;2.02;;;1.90;;
23668;SDS011;12011;47.422;15.018;2023-05-19T09:10:43;1.96;;;1.89;;
23668;SDS011;12011;47.422;15.018;2023-05-19T09:13:13;1.74;;;1.71;;
23668;SDS011;12011;47.422;15.018;2023-05-19T09:15:49;2.01;;;2.00;;
23668;SDS011;12011;47.422;15.018;2023-05-19T09:18:30;1.72;;;1.72;;
23668;SDS011;12011;47.422;15.018;2023-05-19T09:21:07;1.93;;;1.93;;
23668;SDS011;12011;47.422;15.018;2023-05-19T09:23:38;1.83;;;1.83;;
23668;SDS011;12011;47.422;15.018;2023-05-19T09:26:20;1.93;;;1.93;;
23668;SDS011;12011;47.422;15.018;2023-05-19T09:28:51;1.71;;;1.71;;
23668;SDS011;12011;47.422;15.018;2023-05-19T09:31:45;1.68;;;1.68;;
23668;SDS011;12011;47.422;15.018;2023-05-19T09:34:25;1.88;;;1.87;;
23668;SDS011;12011;47.422;15.018;2023-05-19T09:37:03;1.70;;;1.70;;
23668;SDS011;12011;47.422;15.018;2023-05-19T09:39:34;1.87;;;1.87;;
23668;SDS011;12011;47.422;15.018;2023-05-19T09:42:16;2.31;;;2.31;;
23668;SDS011;12011;47.422;15.018;2023-05-19T09:44:58;5.73;;;4.68;;
23668;SDS011;12011;47.422;15.018;2023-05-19T09:47:42;3.05;;;2.60;;
23668;SDS011;12011;47.422;15.018;2023-05-19T09:50:33;2.33;;;2.17;;
23668;SDS011;12011;47.422;15.018;2023-05-19T09:53:19;1.93;;;1.86;;
23668;SDS011;12011;47.422;15.018;2023-05-19T10:01:34;1.80;;;1.79;;
23668;SDS011;12011;47.422;15.018;2023-05-19T10:10:20;1.57;;;1.57;;
23668;SDS011;12011;47.422;15.018;2023-05-19T10:13:21;2.07;;;2.07;;
23668;SDS011;12011;47.422;15.018;2023-05-19T10:16:20;1.82;;;1.82;;
23668;SDS011;12011;47.422;15.018;2023-05-19T10:18:53;1.86;;;1.86;;
23668;SDS011;12011;47.422;15.018;2023-05-19T10:21:24;1.60;;;1.60;;
23668;SDS011;12011;47.422;15.018;2023-05-19T10:23:54;1.48;;;1.48;;
23668;SDS011;12011;47.422;15.018;2023-05-19T10:26:26;1.77;;;1.77;;
23668;SDS011;12011;47.422;15.018;2023-05-19T10:28:57;1.34;;;1.34;;
23668;SDS011;12011;47.422;15.018;2023-05-19T10:31:27;1.67;;;1.66;;
23668;SDS011;12011;47.422;15.018;2023-05-19T10:34:02;1.64;;;1.63;;
23668;SDS011;12011;47.422;15.018;2023-05-19T10:36:56;1.40;;;1.40;;
23668;SDS011;12011;47.422;15.018;2023-05-19T10:39:41;1.64;;;1.64;;
23668;SDS011;12011;47.422;15.018;2023-05-19T10:42:14;1.64;;;1.64;;
23668;SDS011;12011;47.422;15.018;2023-05-19T10:45:00;1.68;;;1.68;;
23668;SDS011;12011;47.422;15.018;2023-05-19T10:47:39;1.44;;;1.44;;
23668;SDS011;12011;47.422;15.018;2023-05-19T10:50:10;1.48;;;1.48;;
23668;SDS011;12011;47.422;15.018;2023-05-19T10:52:41;1.50;;;1.50;;
23668;SDS011;12011;47.422;15.018;2023-05-19T10:55:12;1.32;;;1.32;;
23668;SDS011;12011;47.422;15.018;2023-05-19T10:57:54;1.53;;;1.53;;
23668;SDS011;12011;47.422;15.018;2023-05-19T11:00:26;1.49;;;1.49;;
23668;SDS011;12011;47.422;15.018;2023-05-19T11:05:49;1.48;;;1.48;;
23668;SDS011;12011;47.422;15.018;2023-05-19T11:08:29;1.60;;;1.60;;
23668;SDS011;12011;47.422;15.018;2023-05-19T11:11:10;1.69;;;1.69;;
23668;SDS011;12011;47.422;15.018;2023-05-19T11:13:50;1.61;;;1.61;;
23668;SDS011;12011;47.422;15.018;2023-05-19T11:16:27;1.65;;;1.65;;
23668;SDS011;12011;47.422;15.018;2023-05-19T11:18:59;1.55;;;1.55;;
23668;SDS011;12011;47.422;15.018;2023-05-19T11:21:41;1.36;;;1.36;;
23668;SDS011;12011;47.422;15.018;2023-05-19T11:27:17;1.48;;;1.48;;
23668;SDS011;12011;47.422;15.018;2023-05-19T11:29:52;1.37;;;1.37;;
23668;SDS011;12011;47.422;15.018;2023-05-19T11:32:25;1.41;;;1.41;;
23668;SDS011;12011;47.422;15.018;2023-05-19T11:34:56;1.20;;;1.20;;
23668;SDS011;12011;47.422;15.018;2023-05-19T11:37:25;1.13;;;1.13;;
23668;SDS011;12011;47.422;15.018;2023-05-19T11:40:00;1.47;;;1.47;;
23668;SDS011;12011;47.422;15.018;2023-05-19T11:42:41;1.52;;;1.52;;
23668;SDS011;12011;47.422;15.018;2023-05-19T11:45:14;1.16;;;1.16;;
23668;SDS011;12011;47.422;15.018;2023-05-19T11:47:45;1.27;;;1.27;;
23668;SDS011;12011;47.422;15.018;2023-05-19T11:50:15;1.34;;;1.34;;
23668;SDS011;12011;47.422;15.018;2023-05-19T11:52:58;1.40;;;1.40;;
23668;SDS011;12011;47.422;15.018;2023-05-19T11:55:29;1.57;;;1.57;;
23668;SDS011;12011;47.422;15.018;2023-05-19T11:58:01;1.49;;;1.49;;
23668;SDS011;12011;47.422;15.018;2023-05-19T12:00:36;1.48;;;1.48;;
23668;SDS011;12011;47.422;15.018;2023-05-19T12:03:08;1.49;;;1.49;;
23668;SDS011;12011;47.422;15.018;2023-05-19T12:05:42;2.73;;;2.73;;
23668;SDS011;12011;47.422;15.018;2023-05-19T12:08:15;3.19;;;3.16;;
23668;SDS011;12011;47.422;15.018;2023-05-19T12:10:46;1.70;;;1.69;;
23668;SDS011;12011;47.422;15.018;2023-05-19T12:13:20;1.57;;;1.57;;
23668;SDS011;12011;47.422;15.018;2023-05-19T12:15:52;2.02;;;2.01;;
23668;SDS011;12011;47.422;15.018;2023-05-19T12:18:28;1.81;;;1.81;;
23668;SDS011;12011;47.422;15.018;2023-05-19T12:20:59;1.74;;;1.74;;
23668;SDS011;12011;47.422;15.018;2023-05-19T12:23:28;1.44;;;1.44;;
23668;SDS011;12011;47.422;15.018;2023-05-19T12:25:58;1.56;;;1.56;;
23668;SDS011;12011;47.422;15.018;2023-05-19T12:28:28;1.45;;;1.45;;
23668;SDS011;12011;47.422;15.018;2023-05-19T12:31:01;1.60;;;1.60;;
23668;SDS011;12011;47.422;15.018;2023-05-19T12:33:31;1.41;;;1.41;;
23668;SDS011;12011;47.422;15.018;2023-05-19T12:36:01;1.52;;;1.52;;
23668;SDS011;12011;47.422;15.018;2023-05-19T12:38:33;1.55;;;1.55;;
23668;SDS011;12011;47.422;15.018;2023-05-19T12:41:04;1.75;;;1.75;;
23668;SDS011;12011;47.422;15.018;2023-05-19T12:43:34;1.97;;;1.97;;
23668;SDS011;12011;47.422;15.018;2023-05-19T12:46:12;1.43;;;1.43;;
23668;SDS011;12011;47.422;15.018;2023-05-19T12:48:44;1.54;;;1.54;;
23668;SDS011;12011;47.422;15.018;2023-05-19T12:51:16;1.58;;;1.58;;
23668;SDS011;12011;47.422;15.018;2023-05-19T12:53:48;1.70;;;1.70;;
23668;SDS011;12011;47.422;15.018;2023-05-19T12:56:18;1.44;;;1.44;;
23668;SDS011;12011;47.422;15.018;2023-05-19T12:58:52;1.50;;;1.50;;
23668;SDS011;12011;47.422;15.018;2023-05-19T13:01:25;1.39;;;1.39;;
23668;SDS011;12011;47.422;15.018;2023-05-19T13:03:56;1.61;;;1.61;;
23668;SDS011;12011;47.422;15.018;2023-05-19T13:06:26;1.73;;;1.73;;
23668;SDS011;12011;47.422;15.018;2023-05-19T13:08:57;1.58;;;1.58;;
23668;SDS011;12011;47.422;15.018;2023-05-19T13:11:32;1.62;;;1.62;;
23668;SDS011;12011;47.422;15.018;2023-05-19T13:14:01;1.64;;;1.64;;
23668;SDS011;12011;47.422;15.018;2023-05-19T13:16:33;1.33;;;1.33;;
23668;SDS011;12011;47.422;15.018;2023-05-19T13:19:03;1.90;;;1.90;;
23668;SDS011;12011;47.422;15.018;2023-05-19T13:21:32;1.87;;;1.87;;
23668;SDS011;12011;47.422;15.018;2023-05-19T13:24:11;1.84;;;1.84;;
23668;SDS011;12011;47.422;15.018;2023-05-19T13:29:56;2.08;;;2.08;;
23668;SDS011;12011;47.422;15.018;2023-05-19T13:54:03;1.47;;;1.47;;
23668;SDS011;12011;47.422;15.018;2023-05-19T13:56:50;1.63;;;1.63;;
23668;SDS011;12011;47.422;15.018;2023-05-19T17:04:14;2.20;;;2.20;;
23668;SDS011;12011;47.422;15.018;2023-05-19T17:06:44;2.26;;;2.26;;
23668;SDS011;12011;47.422;15.018;2023-05-19T17:09:13;2.21;;;2.21;;
23668;SDS011;12011;47.422;15.018;2023-05-19T17:11:49;2.23;;;2.23;;
23668;SDS011;12011;47.422;15.018;2023-05-19T17:14:19;2.33;;;2.33;;
23668;SDS011;12011;47.422;15.018;2023-05-19T17:16:50;2.45;;;2.45;;
23668;SDS011;12011;47.422;15.018;2023-05-19T17:19:22;2.32;;;2.31;;
23668;SDS011;12011;47.422;15.018;2023-05-19T17:21:51;2.28;;;2.28;;
23668;SDS011;12011;47.422;15.018;2023-05-19T17:24:21;2.32;;;2.32;;
23668;SDS011;12011;47.422;15.018;2023-05-19T17:26:59;2.33;;;2.33;;
23668;SDS011;12011;47.422;15.018;2023-05-19T17:29:57;2.22;;;2.22;;
23668;SDS011;12011;47.422;15.018;2023-05-19T17:32:33;2.28;;;2.28;;
23668;SDS011;12011;47.422;15.018;2023-05-19T17:35:12;2.15;;;2.15;;
23668;SDS011;12011;47.422;15.018;2023-05-19T17:37:42;2.50;;;2.50;;
23668;SDS011;12011;47.422;15.018;2023-05-19T17:40:12;2.39;;;2.39;;
23668;SDS011;12011;47.422;15.018;2023-05-19T17:42:55;2.00;;;2.00;;
23668;SDS011;12011;47.422;15.018;2023-05-19T17:45:28;2.62;;;2.62;;
23668;SDS011;12011;47.422;15.018;2023-05-19T17:47:59;2.50;;;2.50;;
23668;SDS011;12011;47.422;15.018;2023-05-19T17:50:36;2.31;;;2.31;;
23668;SDS011;12011;47.422;15.018;2023-05-19T17:53:08;2.34;;;2.34;;
23668;SDS011;12011;47.422;15.018;2023-05-19T17:55:39;2.46;;;2.46;;
23668;SDS011;12011;47.422;15.018;2023-05-19T17:58:17;2.23;;;2.23;;
23668;SDS011;12011;47.422;15.018;2023-05-19T18:00:48;2.19;;;2.19;;
23668;SDS011;12011;47.422;15.018;2023-05-19T18:03:18;2.21;;;2.21;;
23668;SDS011;12011;47.422;15.018;2023-05-19T18:05:54;2.46;;;2.46;;
23668;SDS011;12011;47.422;15.018;2023-05-19T18:08:24;2.31;;;2.31;;
23668;SDS011;12011;47.422;15.018;2023-05-19T18:10:57;2.38;;;2.38;;
23668;SDS011;12011;47.422;15.018;2023-05-19T18:13:30;2.55;;;2.55;;
23668;SDS011;12011;47.422;15.018;2023-05-19T18:15:59;2.45;;;2.45;;
23668;SDS011;12011;47.422;15.018;2023-05-19T18:18:32;2.40;;;2.40;;
23668;SDS011;12011;47.422;15.018;2023-05-19T18:21:07;2.62;;;2.62;;
23668;SDS011;12011;47.422;15.018;2023-05-19T18:23:42;2.38;;;2.38;;
23668;SDS011;12011;47.422;15.018;2023-05-19T18:26:13;2.45;;;2.45;;
23668;SDS011;12011;47.422;15.018;2023-05-19T18:28:42;2.54;;;2.54;;
23668;SDS011;12011;47.422;15.018;2023-05-19T18:31:14;2.53;;;2.53;;
23668;SDS011;12011;47.422;15.018;2023-05-19T18:33:44;2.50;;;2.50;;
23668;SDS011;12011;47.422;15.018;2023-05-19T18:36:17;2.39;;;2.39;;
23668;SDS011;12011;47.422;15.018;2023-05-19T18:38:48;2.77;;;2.77;;
23668;SDS011;12011;47.422;15.018;2023-05-19T18:41:19;2.50;;;2.50;;
23668;SDS011;12011;47.422;15.018;2023-05-19T18:43:49;2.94;;;2.94;;
23668;SDS011;12011;47.422;15.018;2023-05-19T18:46:18;3.33;;;3.33;;
23668;SDS011;12011;47.422;15.018;2023-05-19T18:48:48;3.58;;;3.58;;
23668;SDS011;12011;47.422;15.018;2023-05-19T18:51:22;3.31;;;3.31;;
23668;SDS011;12011;47.422;15.018;2023-05-19T18:53:52;2.53;;;2.53;;
23668;SDS011;12011;47.422;15.018;2023-05-19T18:56:22;2.94;;;2.94;;
23668;SDS011;12011;47.422;15.018;2023-05-19T18:58:53;3.06;;;3.06;;
23668;SDS011;12011;47.422;15.018;2023-05-19T19:01:22;3.12;;;3.12;;
23668;SDS011;12011;47.422;15.018;2023-05-19T19:03:52;3.15;;;3.15;;
23668;SDS011;12011;47.422;15.018;2023-05-19T19:06:24;3.02;;;3.02;;